Airfield :
LOGIN :

Register | Disclaimer

   EN    FR    IT 

 










Legend :    VFR   Marginal VFR   IFR   Intensive IFR   Very Intensive IFR
Visi :
Ceiling :
>= 8 km
>= 3000ft
5 to 8 km
1000 to 3000 ft
1500m to 5 km
500 to 1000 ft
800 to 1500m
200 to 500 ft
< 800m
< 200 ft
Symbols :   Thunderstorms  Fog  Heavy snow  Heavy precipitations  Wind > 20 kt
SIGMETs :     Misc.  Thunderstorms  Icing  Turbulence  Mountain Waves  Volcanic Ashes






- Airport Elevation : 38 ft
- IATA code : BOH


EGHH - Bournemouth

CURRENT METAR :
  • 030720Z 26009KT 9999 FEW016 16/12 Q1019

EXPIRED METARs :
  • 030650Z 28008KT 9999 FEW045 15/12 Q1019
  • 030620Z 28007KT 9999 FEW048 15/13 Q1019
  • 030550Z 27007KT 9999 FEW048 14/12 Q1019
  • 030520Z 26005KT 9999 FEW048 13/12 Q1019
  • 030450Z 26004KT 9999 BKN048 12/11 Q1019

TAF TAF EGHH
Valid from the 03 at 06:00 until the 03 at 15:00 UTC


030533Z 0306/0315 26005KT 9999 SCT045
PROB30
TEMPO 0310/0315 8000 -SHRA
ATIS : +44 1202 364 151
Met : +44 1202 364 158 (TAF)



MET'MAP, your aeronautical weather chart ! - Copyright ORBIFLY December 2007 - Disclaimer

ORBIFLY MET'MAP TEAM :

Programming & Development : Alexandra Zaïnal
Original concept : Baudouin d'Aumeries
Technical & hardware support : Manuel Goepfert
Assistance : Marc-Olivier Méhu




SOURCES & CREDITS :

   NOAA